sensor_id;sensor_type;location;lat;lon;timestamp;P1;durP1;ratioP1;P2;durP2;ratioP2
38859;SDS011;24609;48.316;16.174;2023-03-04T00:01:11;20.08;;;9.30;;
38859;SDS011;24609;48.316;16.174;2023-03-04T00:03:37;14.77;;;8.05;;
38859;SDS011;24609;48.316;16.174;2023-03-04T00:06:03;21.80;;;9.88;;
38859;SDS011;24609;48.316;16.174;2023-03-04T00:08:29;18.40;;;9.27;;
38859;SDS011;24609;48.316;16.174;2023-03-04T00:10:55;26.40;;;10.10;;
38859;SDS011;24609;48.316;16.174;2023-03-04T00:13:20;18.40;;;10.38;;
38859;SDS011;24609;48.316;16.174;2023-03-04T00:15:46;15.77;;;9.82;;
38859;SDS011;24609;48.316;16.174;2023-03-04T00:18:13;22.77;;;11.48;;
38859;SDS011;24609;48.316;16.174;2023-03-04T00:20:39;18.95;;;9.95;;
38859;SDS011;24609;48.316;16.174;2023-03-04T00:23:04;19.75;;;11.15;;
38859;SDS011;24609;48.316;16.174;2023-03-04T00:25:30;35.30;;;12.05;;
38859;SDS011;24609;48.316;16.174;2023-03-04T00:27:57;27.02;;;12.85;;
38859;SDS011;24609;48.316;16.174;2023-03-04T00:30:23;19.42;;;12.05;;
38859;SDS011;24609;48.316;16.174;2023-03-04T00:32:49;18.58;;;10.52;;
38859;SDS011;24609;48.316;16.174;2023-03-04T00:35:15;25.90;;;13.43;;
38859;SDS011;24609;48.316;16.174;2023-03-04T00:37:41;21.58;;;11.52;;
38859;SDS011;24609;48.316;16.174;2023-03-04T00:40:07;28.38;;;11.07;;
38859;SDS011;24609;48.316;16.174;2023-03-04T00:42:33;17.10;;;9.18;;
38859;SDS011;24609;48.316;16.174;2023-03-04T00:44:59;21.50;;;9.32;;
38859;SDS011;24609;48.316;16.174;2023-03-04T00:47:25;26.48;;;13.25;;
38859;SDS011;24609;48.316;16.174;2023-03-04T00:49:50;18.00;;;10.20;;
38859;SDS011;24609;48.316;16.174;2023-03-04T00:52:16;20.90;;;12.13;;
38859;SDS011;24609;48.316;16.174;2023-03-04T00:54:42;21.90;;;11.48;;
38859;SDS011;24609;48.316;16.174;2023-03-04T00:57:07;26.75;;;9.73;;
38859;SDS011;24609;48.316;16.174;2023-03-04T00:59:33;18.77;;;9.73;;
38859;SDS011;24609;48.316;16.174;2023-03-04T01:01:59;20.95;;;11.10;;
38859;SDS011;24609;48.316;16.174;2023-03-04T01:04:24;29.20;;;11.35;;
38859;SDS011;24609;48.316;16.174;2023-03-04T01:06:50;23.00;;;10.98;;
38859;SDS011;24609;48.316;16.174;2023-03-04T01:09:16;17.25;;;9.63;;
38859;SDS011;24609;48.316;16.174;2023-03-04T01:11:41;25.00;;;10.60;;
38859;SDS011;24609;48.316;16.174;2023-03-04T01:14:07;16.90;;;10.48;;
38859;SDS011;24609;48.316;16.174;2023-03-04T01:16:33;16.95;;;10.60;;
38859;SDS011;24609;48.316;16.174;2023-03-04T01:18:59;22.52;;;9.52;;
38859;SDS011;24609;48.316;16.174;2023-03-04T01:21:24;13.40;;;7.65;;
38859;SDS011;24609;48.316;16.174;2023-03-04T01:23:50;27.45;;;10.98;;
38859;SDS011;24609;48.316;16.174;2023-03-04T01:26:16;26.90;;;9.57;;
38859;SDS011;24609;48.316;16.174;2023-03-04T01:28:42;21.27;;;10.48;;
38859;SDS011;24609;48.316;16.174;2023-03-04T01:31:07;32.72;;;10.32;;
38859;SDS011;24609;48.316;16.174;2023-03-04T01:33:33;23.92;;;10.95;;
38859;SDS011;24609;48.316;16.174;2023-03-04T01:35:59;18.23;;;9.60;;
38859;SDS011;24609;48.316;16.174;2023-03-04T01:38:24;13.32;;;8.73;;
38859;SDS011;24609;48.316;16.174;2023-03-04T01:40:50;22.55;;;10.10;;
38859;SDS011;24609;48.316;16.174;2023-03-04T01:43:21;13.07;;;7.63;;
38859;SDS011;24609;48.316;16.174;2023-03-04T01:45:49;16.17;;;8.82;;
38859;SDS011;24609;48.316;16.174;2023-03-04T01:48:16;20.92;;;11.18;;
38859;SDS011;24609;48.316;16.174;2023-03-04T01:50:45;15.45;;;8.00;;
38859;SDS011;24609;48.316;16.174;2023-03-04T01:53:21;16.92;;;10.77;;
38859;SDS011;24609;48.316;16.174;2023-03-04T01:55:49;18.88;;;10.25;;
38859;SDS011;24609;48.316;16.174;2023-03-04T01:58:17;23.53;;;10.57;;
38859;SDS011;24609;48.316;16.174;2023-03-04T02:00:43;21.27;;;10.75;;
38859;SDS011;24609;48.316;16.174;2023-03-04T02:03:10;27.55;;;11.55;;
38859;SDS011;24609;48.316;16.174;2023-03-04T02:05:43;19.10;;;10.25;;
38859;SDS011;24609;48.316;16.174;2023-03-04T02:08:11;23.23;;;11.27;;
38859;SDS011;24609;48.316;16.174;2023-03-04T02:10:37;16.95;;;9.63;;
38859;SDS011;24609;48.316;16.174;2023-03-04T02:13:05;12.93;;;7.45;;
38859;SDS011;24609;48.316;16.174;2023-03-04T02:15:31;27.70;;;11.63;;
38859;SDS011;24609;48.316;16.174;2023-03-04T02:17:57;25.52;;;11.90;;
38859;SDS011;24609;48.316;16.174;2023-03-04T02:28:38;28.65;;;11.07;;
38859;SDS011;24609;48.316;16.174;2023-03-04T02:31:04;24.85;;;9.75;;
38859;SDS011;24609;48.316;16.174;2023-03-04T02:33:30;24.50;;;10.93;;
38859;SDS011;24609;48.316;16.174;2023-03-04T02:35:57;20.98;;;10.35;;
38859;SDS011;24609;48.316;16.174;2023-03-04T02:38:23;21.63;;;9.85;;
38859;SDS011;24609;48.316;16.174;2023-03-04T02:40:50;9.75;;;6.15;;
38859;SDS011;24609;48.316;16.174;2023-03-04T02:43:18;25.70;;;9.63;;
38859;SDS011;24609;48.316;16.174;2023-03-04T02:45:45;18.75;;;9.05;;
38859;SDS011;24609;48.316;16.174;2023-03-04T02:50:44;13.20;;;8.85;;
38859;SDS011;24609;48.316;16.174;2023-03-04T02:53:19;10.73;;;7.75;;
38859;SDS011;24609;48.316;16.174;2023-03-04T02:55:45;11.80;;;7.30;;
38859;SDS011;24609;48.316;16.174;2023-03-04T02:58:12;12.85;;;8.82;;
38859;SDS011;24609;48.316;16.174;2023-03-04T03:00:38;12.05;;;6.13;;
38859;SDS011;24609;48.316;16.174;2023-03-04T03:03:04;14.45;;;8.25;;
38859;SDS011;24609;48.316;16.174;2023-03-04T03:05:31;14.18;;;6.10;;
38859;SDS011;24609;48.316;16.174;2023-03-04T03:07:59;21.13;;;8.35;;
38859;SDS011;24609;48.316;16.174;2023-03-04T03:10:25;17.98;;;9.15;;
38859;SDS011;24609;48.316;16.174;2023-03-04T03:12:52;18.05;;;6.88;;
38859;SDS011;24609;48.316;16.174;2023-03-04T03:15:17;18.50;;;7.53;;
38859;SDS011;24609;48.316;16.174;2023-03-04T03:17:44;14.10;;;5.50;;
38859;SDS011;24609;48.316;16.174;2023-03-04T03:20:11;12.65;;;8.07;;
38859;SDS011;24609;48.316;16.174;2023-03-04T03:22:38;10.85;;;4.30;;
38859;SDS011;24609;48.316;16.174;2023-03-04T03:25:05;16.00;;;7.88;;
38859;SDS011;24609;48.316;16.174;2023-03-04T03:27:31;12.65;;;6.47;;
38859;SDS011;24609;48.316;16.174;2023-03-04T03:29:57;13.75;;;8.35;;
38859;SDS011;24609;48.316;16.174;2023-03-04T03:32:23;10.60;;;7.03;;
38859;SDS011;24609;48.316;16.174;2023-03-04T03:34:49;12.05;;;6.78;;
38859;SDS011;24609;48.316;16.174;2023-03-04T03:37:15;15.07;;;7.82;;
38859;SDS011;24609;48.316;16.174;2023-03-04T03:39:41;22.33;;;7.10;;
38859;SDS011;24609;48.316;16.174;2023-03-04T03:42:07;10.02;;;7.85;;
38859;SDS011;24609;48.316;16.174;2023-03-04T03:44:32;12.23;;;8.40;;
38859;SDS011;24609;48.316;16.174;2023-03-04T03:46:58;9.63;;;7.05;;
38859;SDS011;24609;48.316;16.174;2023-03-04T03:49:24;21.13;;;10.35;;
38859;SDS011;24609;48.316;16.174;2023-03-04T03:51:50;15.63;;;9.68;;
38859;SDS011;24609;48.316;16.174;2023-03-04T03:54:15;19.98;;;8.73;;
38859;SDS011;24609;48.316;16.174;2023-03-04T03:56:41;13.02;;;8.65;;
38859;SDS011;24609;48.316;16.174;2023-03-04T03:59:07;14.90;;;9.70;;
38859;SDS011;24609;48.316;16.174;2023-03-04T04:01:32;39.95;;;12.40;;
38859;SDS011;24609;48.316;16.174;2023-03-04T04:03:58;22.55;;;10.75;;
38859;SDS011;24609;48.316;16.174;2023-03-04T04:06:24;20.98;;;10.15;;
38859;SDS011;24609;48.316;16.174;2023-03-04T04:08:50;31.85;;;11.27;;
38859;SDS011;24609;48.316;16.174;2023-03-04T04:11:16;16.33;;;10.60;;
38859;SDS011;24609;48.316;16.174;2023-03-04T04:13:42;26.98;;;11.77;;
38859;SDS011;24609;48.316;16.174;2023-03-04T04:16:08;26.88;;;13.30;;
38859;SDS011;24609;48.316;16.174;2023-03-04T04:18:35;15.60;;;9.07;;
38859;SDS011;24609;48.316;16.174;2023-03-04T04:21:02;24.48;;;12.48;;
38859;SDS011;24609;48.316;16.174;2023-03-04T04:23:28;18.02;;;10.45;;
38859;SDS011;24609;48.316;16.174;2023-03-04T04:25:54;27.58;;;12.73;;
38859;SDS011;24609;48.316;16.174;2023-03-04T04:28:20;17.42;;;10.43;;
38859;SDS011;24609;48.316;16.174;2023-03-04T04:30:46;24.05;;;11.25;;
38859;SDS011;24609;48.316;16.174;2023-03-04T04:33:12;17.40;;;10.18;;
38859;SDS011;24609;48.316;16.174;2023-03-04T04:35:38;25.63;;;12.27;;
38859;SDS011;24609;48.316;16.174;2023-03-04T04:38:04;24.27;;;11.50;;
38859;SDS011;24609;48.316;16.174;2023-03-04T04:40:32;26.70;;;13.77;;
38859;SDS011;24609;48.316;16.174;2023-03-04T04:42:58;25.48;;;12.32;;
38859;SDS011;24609;48.316;16.174;2023-03-04T04:45:24;20.00;;;11.32;;
38859;SDS011;24609;48.316;16.174;2023-03-04T04:47:50;23.33;;;13.40;;
38859;SDS011;24609;48.316;16.174;2023-03-04T04:50:16;23.50;;;13.00;;
38859;SDS011;24609;48.316;16.174;2023-03-04T04:52:42;28.83;;;14.57;;
38859;SDS011;24609;48.316;16.174;2023-03-04T04:55:08;22.38;;;12.23;;
38859;SDS011;24609;48.316;16.174;2023-03-04T04:57:34;28.85;;;14.63;;
38859;SDS011;24609;48.316;16.174;2023-03-04T04:59:59;35.35;;;16.05;;
38859;SDS011;24609;48.316;16.174;2023-03-04T05:02:25;25.92;;;14.77;;
38859;SDS011;24609;48.316;16.174;2023-03-04T05:04:51;28.00;;;13.30;;
38859;SDS011;24609;48.316;16.174;2023-03-04T05:07:17;35.53;;;14.48;;
38859;SDS011;24609;48.316;16.174;2023-03-04T05:09:43;28.50;;;13.65;;
38859;SDS011;24609;48.316;16.174;2023-03-04T05:12:10;25.23;;;15.20;;
38859;SDS011;24609;48.316;16.174;2023-03-04T05:14:35;29.95;;;14.25;;
38859;SDS011;24609;48.316;16.174;2023-03-04T05:17:01;34.92;;;14.85;;
38859;SDS011;24609;48.316;16.174;2023-03-04T05:19:27;32.53;;;15.63;;
38859;SDS011;24609;48.316;16.174;2023-03-04T05:21:52;35.17;;;15.30;;
38859;SDS011;24609;48.316;16.174;2023-03-04T05:24:18;34.78;;;15.57;;
38859;SDS011;24609;48.316;16.174;2023-03-04T05:26:44;27.67;;;15.95;;
38859;SDS011;24609;48.316;16.174;2023-03-04T05:29:09;50.20;;;15.52;;
38859;SDS011;24609;48.316;16.174;2023-03-04T05:31:35;31.67;;;15.80;;
38859;SDS011;24609;48.316;16.174;2023-03-04T05:34:01;54.50;;;17.80;;
38859;SDS011;24609;48.316;16.174;2023-03-04T05:36:27;38.15;;;16.88;;
38859;SDS011;24609;48.316;16.174;2023-03-04T05:38:52;37.80;;;14.77;;
38859;SDS011;24609;48.316;16.174;2023-03-04T05:41:18;33.33;;;18.17;;
38859;SDS011;24609;48.316;16.174;2023-03-04T05:43:47;30.25;;;16.88;;
38859;SDS011;24609;48.316;16.174;2023-03-04T05:46:14;36.55;;;17.88;;
38859;SDS011;24609;48.316;16.174;2023-03-04T05:48:41;42.60;;;18.75;;
38859;SDS011;24609;48.316;16.174;2023-03-04T05:51:08;39.00;;;19.27;;
38859;SDS011;24609;48.316;16.174;2023-03-04T05:53:34;31.63;;;17.63;;
38859;SDS011;24609;48.316;16.174;2023-03-04T05:56:10;42.78;;;17.90;;
38859;SDS011;24609;48.316;16.174;2023-03-04T05:58:38;41.20;;;17.80;;
38859;SDS011;24609;48.316;16.174;2023-03-04T06:01:04;30.63;;;17.10;;
38859;SDS011;24609;48.316;16.174;2023-03-04T06:03:30;42.15;;;18.13;;
38859;SDS011;24609;48.316;16.174;2023-03-04T06:05:57;29.85;;;16.52;;
38859;SDS011;24609;48.316;16.174;2023-03-04T06:08:22;38.53;;;16.98;;
38859;SDS011;24609;48.316;16.174;2023-03-04T06:10:50;42.17;;;18.60;;
38859;SDS011;24609;48.316;16.174;2023-03-04T06:13:17;32.17;;;15.95;;
38859;SDS011;24609;48.316;16.174;2023-03-04T06:15:43;42.20;;;19.88;;
38859;SDS011;24609;48.316;16.174;2023-03-04T06:18:09;48.13;;;18.05;;
38859;SDS011;24609;48.316;16.174;2023-03-04T06:20:35;36.38;;;17.40;;
38859;SDS011;24609;48.316;16.174;2023-03-04T06:23:01;33.97;;;19.33;;
38859;SDS011;24609;48.316;16.174;2023-03-04T06:25:27;31.77;;;18.65;;
38859;SDS011;24609;48.316;16.174;2023-03-04T06:27:54;46.38;;;20.35;;
38859;SDS011;24609;48.316;16.174;2023-03-04T06:30:20;42.22;;;21.95;;
38859;SDS011;24609;48.316;16.174;2023-03-04T06:32:46;43.03;;;20.90;;
38859;SDS011;24609;48.316;16.174;2023-03-04T06:35:12;47.22;;;20.88;;
38859;SDS011;24609;48.316;16.174;2023-03-04T06:37:39;41.17;;;21.23;;
38859;SDS011;24609;48.316;16.174;2023-03-04T06:40:07;40.97;;;22.25;;
38859;SDS011;24609;48.316;16.174;2023-03-04T06:42:34;45.42;;;22.20;;
38859;SDS011;24609;48.316;16.174;2023-03-04T06:45:00;49.00;;;23.63;;
38859;SDS011;24609;48.316;16.174;2023-03-04T06:47:27;42.72;;;22.25;;
38859;SDS011;24609;48.316;16.174;2023-03-04T06:49:54;47.20;;;19.77;;
38859;SDS011;24609;48.316;16.174;2023-03-04T06:52:20;56.40;;;23.40;;
38859;SDS011;24609;48.316;16.174;2023-03-04T06:54:46;53.22;;;20.98;;
38859;SDS011;24609;48.316;16.174;2023-03-04T06:57:12;54.28;;;23.65;;
38859;SDS011;24609;48.316;16.174;2023-03-04T06:59:38;50.63;;;23.52;;
38859;SDS011;24609;48.316;16.174;2023-03-04T07:02:04;41.83;;;22.65;;
38859;SDS011;24609;48.316;16.174;2023-03-04T07:04:31;55.10;;;22.33;;
38859;SDS011;24609;48.316;16.174;2023-03-04T07:06:56;40.75;;;20.58;;
38859;SDS011;24609;48.316;16.174;2023-03-04T07:09:22;55.55;;;22.52;;
38859;SDS011;24609;48.316;16.174;2023-03-04T07:11:48;40.60;;;21.23;;
38859;SDS011;24609;48.316;16.174;2023-03-04T07:14:13;43.45;;;24.55;;
38859;SDS011;24609;48.316;16.174;2023-03-04T07:16:39;41.80;;;20.88;;
38859;SDS011;24609;48.316;16.174;2023-03-04T07:19:05;45.95;;;22.45;;
38859;SDS011;24609;48.316;16.174;2023-03-04T07:21:31;43.15;;;22.05;;
38859;SDS011;24609;48.316;16.174;2023-03-04T07:23:57;48.42;;;21.55;;
38859;SDS011;24609;48.316;16.174;2023-03-04T07:26:23;49.92;;;23.08;;
38859;SDS011;24609;48.316;16.174;2023-03-04T07:28:48;52.67;;;21.08;;
38859;SDS011;24609;48.316;16.174;2023-03-04T07:33:46;48.78;;;20.20;;
38859;SDS011;24609;48.316;16.174;2023-03-04T07:36:12;51.50;;;22.67;;
38859;SDS011;24609;48.316;16.174;2023-03-04T07:38:41;47.90;;;21.08;;
38859;SDS011;24609;48.316;16.174;2023-03-04T07:41:08;47.20;;;20.65;;
38859;SDS011;24609;48.316;16.174;2023-03-04T07:43:34;45.22;;;20.38;;
38859;SDS011;24609;48.316;16.174;2023-03-04T07:46:00;44.50;;;20.75;;
38859;SDS011;24609;48.316;16.174;2023-03-04T07:48:27;45.22;;;22.75;;
38859;SDS011;24609;48.316;16.174;2023-03-04T07:53:37;41.58;;;20.73;;
38859;SDS011;24609;48.316;16.174;2023-03-04T07:56:04;54.22;;;22.98;;
38859;SDS011;24609;48.316;16.174;2023-03-04T07:58:31;53.50;;;21.73;;
38859;SDS011;24609;48.316;16.174;2023-03-04T08:00:57;47.05;;;20.60;;
38859;SDS011;24609;48.316;16.174;2023-03-04T08:03:23;41.80;;;20.88;;
38859;SDS011;24609;48.316;16.174;2023-03-04T08:05:49;43.83;;;18.75;;
38859;SDS011;24609;48.316;16.174;2023-03-04T08:08:15;54.25;;;22.83;;
38859;SDS011;24609;48.316;16.174;2023-03-04T08:10:41;53.58;;;20.50;;
38859;SDS011;24609;48.316;16.174;2023-03-04T08:13:08;40.58;;;19.35;;
38859;SDS011;24609;48.316;16.174;2023-03-04T08:15:38;44.33;;;21.55;;
38859;SDS011;24609;48.316;16.174;2023-03-04T08:18:04;49.22;;;23.83;;
38859;SDS011;24609;48.316;16.174;2023-03-04T08:20:30;50.33;;;20.20;;
38859;SDS011;24609;48.316;16.174;2023-03-04T08:22:56;47.28;;;20.55;;
38859;SDS011;24609;48.316;16.174;2023-03-04T08:25:21;39.53;;;19.45;;
38859;SDS011;24609;48.316;16.174;2023-03-04T08:27:47;39.92;;;18.88;;
38859;SDS011;24609;48.316;16.174;2023-03-04T08:30:13;40.40;;;18.25;;
38859;SDS011;24609;48.316;16.174;2023-03-04T08:32:38;34.17;;;18.08;;
38859;SDS011;24609;48.316;16.174;2023-03-04T08:35:04;35.85;;;16.48;;
38859;SDS011;24609;48.316;16.174;2023-03-04T08:37:30;39.03;;;17.02;;
38859;SDS011;24609;48.316;16.174;2023-03-04T08:39:56;38.25;;;16.67;;
38859;SDS011;24609;48.316;16.174;2023-03-04T08:42:22;37.72;;;16.23;;
38859;SDS011;24609;48.316;16.174;2023-03-04T08:44:48;29.83;;;13.48;;
38859;SDS011;24609;48.316;16.174;2023-03-04T08:47:14;31.98;;;13.60;;
38859;SDS011;24609;48.316;16.174;2023-03-04T08:49:40;29.65;;;12.75;;
38859;SDS011;24609;48.316;16.174;2023-03-04T08:52:06;29.10;;;12.50;;
38859;SDS011;24609;48.316;16.174;2023-03-04T08:54:32;26.15;;;13.05;;
38859;SDS011;24609;48.316;16.174;2023-03-04T08:56:58;23.13;;;11.85;;
38859;SDS011;24609;48.316;16.174;2023-03-04T08:59:23;26.75;;;11.77;;
38859;SDS011;24609;48.316;16.174;2023-03-04T09:01:49;24.08;;;11.02;;
38859;SDS011;24609;48.316;16.174;2023-03-04T09:04:15;25.25;;;10.57;;
38859;SDS011;24609;48.316;16.174;2023-03-04T09:06:41;18.77;;;9.60;;
38859;SDS011;24609;48.316;16.174;2023-03-04T09:09:06;22.25;;;10.98;;
38859;SDS011;24609;48.316;16.174;2023-03-04T09:11:32;22.45;;;10.30;;
38859;SDS011;24609;48.316;16.174;2023-03-04T09:13:58;24.00;;;10.82;;
38859;SDS011;24609;48.316;16.174;2023-03-04T09:16:24;17.05;;;8.93;;
38859;SDS011;24609;48.316;16.174;2023-03-04T09:18:49;24.92;;;10.05;;
38859;SDS011;24609;48.316;16.174;2023-03-04T09:21:15;19.08;;;10.93;;
38859;SDS011;24609;48.316;16.174;2023-03-04T09:23:41;26.95;;;11.27;;
38859;SDS011;24609;48.316;16.174;2023-03-04T09:26:24;22.70;;;10.85;;
38859;SDS011;24609;48.316;16.174;2023-03-04T09:28:55;24.70;;;11.15;;
38859;SDS011;24609;48.316;16.174;2023-03-04T09:31:22;28.95;;;10.77;;
38859;SDS011;24609;48.316;16.174;2023-03-04T09:33:49;20.02;;;10.15;;
38859;SDS011;24609;48.316;16.174;2023-03-04T09:36:16;22.63;;;10.90;;
38859;SDS011;24609;48.316;16.174;2023-03-04T09:38:41;22.30;;;9.80;;
38859;SDS011;24609;48.316;16.174;2023-03-04T09:41:11;20.45;;;8.23;;
38859;SDS011;24609;48.316;16.174;2023-03-04T09:43:44;20.77;;;9.88;;
38859;SDS011;24609;48.316;16.174;2023-03-04T09:46:33;23.00;;;8.52;;
38859;SDS011;24609;48.316;16.174;2023-03-04T09:48:58;19.63;;;9.70;;
38859;SDS011;24609;48.316;16.174;2023-03-04T09:54:09;23.35;;;10.02;;
38859;SDS011;24609;48.316;16.174;2023-03-04T09:56:40;19.70;;;9.85;;
38859;SDS011;24609;48.316;16.174;2023-03-04T09:59:17;18.73;;;10.25;;
38859;SDS011;24609;48.316;16.174;2023-03-04T10:01:57;24.25;;;10.68;;
38859;SDS011;24609;48.316;16.174;2023-03-04T10:04:37;18.27;;;9.50;;
38859;SDS011;24609;48.316;16.174;2023-03-04T10:07:16;17.88;;;9.02;;
38859;SDS011;24609;48.316;16.174;2023-03-04T10:10:05;22.80;;;10.18;;
38859;SDS011;24609;48.316;16.174;2023-03-04T10:12:39;22.33;;;8.50;;
38859;SDS011;24609;48.316;16.174;2023-03-04T10:15:17;16.45;;;8.07;;
38859;SDS011;24609;48.316;16.174;2023-03-04T10:17:53;19.45;;;9.48;;
38859;SDS011;24609;48.316;16.174;2023-03-04T10:20:26;19.05;;;8.82;;
38859;SDS011;24609;48.316;16.174;2023-03-04T10:23:08;18.83;;;8.55;;
38859;SDS011;24609;48.316;16.174;2023-03-04T10:25:36;19.90;;;8.48;;
38859;SDS011;24609;48.316;16.174;2023-03-04T10:28:17;17.55;;;9.13;;
38859;SDS011;24609;48.316;16.174;2023-03-04T10:33:30;17.35;;;8.68;;
38859;SDS011;24609;48.316;16.174;2023-03-04T10:38:59;20.13;;;8.15;;
38859;SDS011;24609;48.316;16.174;2023-03-04T10:41:53;19.60;;;8.52;;
38859;SDS011;24609;48.316;16.174;2023-03-04T10:44:28;16.10;;;7.85;;
38859;SDS011;24609;48.316;16.174;2023-03-04T10:46:56;16.92;;;8.18;;
38859;SDS011;24609;48.316;16.174;2023-03-04T10:49:22;20.42;;;10.18;;
38859;SDS011;24609;48.316;16.174;2023-03-04T10:54:26;18.20;;;9.00;;
38859;SDS011;24609;48.316;16.174;2023-03-04T10:57:39;17.45;;;8.15;;
38859;SDS011;24609;48.316;16.174;2023-03-04T11:02:51;19.65;;;8.73;;
38859;SDS011;24609;48.316;16.174;2023-03-04T11:05:18;19.35;;;10.00;;
38859;SDS011;24609;48.316;16.174;2023-03-04T11:07:48;15.95;;;8.20;;
38859;SDS011;24609;48.316;16.174;2023-03-04T11:13:07;17.67;;;8.40;;
38859;SDS011;24609;48.316;16.174;2023-03-04T11:18:18;19.15;;;9.68;;
38859;SDS011;24609;48.316;16.174;2023-03-04T11:20:53;15.90;;;8.40;;
38859;SDS011;24609;48.316;16.174;2023-03-04T11:25:58;15.50;;;9.00;;
38859;SDS011;24609;48.316;16.174;2023-03-04T11:28:47;17.98;;;8.80;;
38859;SDS011;24609;48.316;16.174;2023-03-04T11:31:22;18.65;;;9.35;;
38859;SDS011;24609;48.316;16.174;2023-03-04T11:34:14;14.90;;;7.85;;
38859;SDS011;24609;48.316;16.174;2023-03-04T11:42:44;16.05;;;8.00;;
38859;SDS011;24609;48.316;16.174;2023-03-04T11:45:45;15.25;;;7.75;;
38859;SDS011;24609;48.316;16.174;2023-03-04T11:56:49;14.88;;;6.82;;
38859;SDS011;24609;48.316;16.174;2023-03-04T12:01:58;16.17;;;7.50;;
38859;SDS011;24609;48.316;16.174;2023-03-04T12:21:03;13.07;;;6.85;;
38859;SDS011;24609;48.316;16.174;2023-03-04T12:26:44;14.50;;;6.93;;
38859;SDS011;24609;48.316;16.174;2023-03-04T12:29:07;13.05;;;6.40;;
38859;SDS011;24609;48.316;16.174;2023-03-04T12:32:41;13.10;;;6.75;;
38859;SDS011;24609;48.316;16.174;2023-03-04T12:35:11;12.30;;;6.82;;
38859;SDS011;24609;48.316;16.174;2023-03-04T12:38:04;14.50;;;7.07;;
38859;SDS011;24609;48.316;16.174;2023-03-04T12:48:59;13.00;;;7.75;;
38859;SDS011;24609;48.316;16.174;2023-03-04T12:52:09;15.13;;;7.72;;
38859;SDS011;24609;48.316;16.174;2023-03-04T12:54:57;19.70;;;8.48;;
38859;SDS011;24609;48.316;16.174;2023-03-04T12:57:27;15.68;;;7.47;;
38859;SDS011;24609;48.316;16.174;2023-03-04T13:05:40;11.50;;;7.13;;
38859;SDS011;24609;48.316;16.174;2023-03-04T13:10:53;16.88;;;7.82;;
38859;SDS011;24609;48.316;16.174;2023-03-04T13:13:39;14.88;;;6.80;;
38859;SDS011;24609;48.316;16.174;2023-03-04T13:16:27;12.77;;;6.25;;
38859;SDS011;24609;48.316;16.174;2023-03-04T13:18:54;17.60;;;6.93;;
38859;SDS011;24609;48.316;16.174;2023-03-04T13:21:21;16.58;;;7.85;;
38859;SDS011;24609;48.316;16.174;2023-03-04T13:23:49;17.00;;;6.63;;
38859;SDS011;24609;48.316;16.174;2023-03-04T13:26:22;14.18;;;7.22;;
38859;SDS011;24609;48.316;16.174;2023-03-04T13:29:08;18.65;;;7.93;;
38859;SDS011;24609;48.316;16.174;2023-03-04T13:32:24;13.25;;;6.60;;
38859;SDS011;24609;48.316;16.174;2023-03-04T13:42:44;20.10;;;7.28;;
38859;SDS011;24609;48.316;16.174;2023-03-04T13:48:02;15.02;;;7.00;;
38859;SDS011;24609;48.316;16.174;2023-03-04T13:50:48;12.23;;;5.97;;
38859;SDS011;24609;48.316;16.174;2023-03-04T13:58:48;18.55;;;7.00;;
38859;SDS011;24609;48.316;16.174;2023-03-04T14:01:29;20.02;;;6.53;;
38859;SDS011;24609;48.316;16.174;2023-03-04T14:03:56;13.20;;;6.85;;
38859;SDS011;24609;48.316;16.174;2023-03-04T14:06:24;13.35;;;5.78;;
38859;SDS011;24609;48.316;16.174;2023-03-04T14:08:54;16.95;;;7.72;;
38859;SDS011;24609;48.316;16.174;2023-03-04T14:13:51;14.93;;;6.55;;
38859;SDS011;24609;48.316;16.174;2023-03-04T14:16:19;15.70;;;6.28;;
38859;SDS011;24609;48.316;16.174;2023-03-04T14:18:55;12.45;;;5.43;;
38859;SDS011;24609;48.316;16.174;2023-03-04T14:21:25;11.63;;;5.63;;
38859;SDS011;24609;48.316;16.174;2023-03-04T14:23:59;16.92;;;8.57;;
38859;SDS011;24609;48.316;16.174;2023-03-04T14:26:35;23.73;;;10.18;;
38859;SDS011;24609;48.316;16.174;2023-03-04T14:29:01;19.40;;;8.88;;
38859;SDS011;24609;48.316;16.174;2023-03-04T14:31:29;16.83;;;8.57;;
38859;SDS011;24609;48.316;16.174;2023-03-04T14:33:58;16.33;;;9.23;;
38859;SDS011;24609;48.316;16.174;2023-03-04T14:36:27;18.55;;;9.68;;
38859;SDS011;24609;48.316;16.174;2023-03-04T14:38:57;19.67;;;9.85;;
38859;SDS011;24609;48.316;16.174;2023-03-04T14:46:35;22.20;;;9.30;;
38859;SDS011;24609;48.316;16.174;2023-03-04T14:49:05;18.77;;;9.20;;
38859;SDS011;24609;48.316;16.174;2023-03-04T14:51:39;16.15;;;7.95;;
38859;SDS011;24609;48.316;16.174;2023-03-04T15:03:29;15.38;;;8.30;;
38859;SDS011;24609;48.316;16.174;2023-03-04T15:05:41;23.25;;;9.30;;
38859;SDS011;24609;48.316;16.174;2023-03-04T15:10:57;16.65;;;8.25;;
38859;SDS011;24609;48.316;16.174;2023-03-04T15:16:05;13.18;;;7.05;;
38859;SDS011;24609;48.316;16.174;2023-03-04T15:18:32;19.98;;;9.20;;
38859;SDS011;24609;48.316;16.174;2023-03-04T15:20:59;17.02;;;8.68;;
38859;SDS011;24609;48.316;16.174;2023-03-04T15:23:28;18.20;;;9.25;;
38859;SDS011;24609;48.316;16.174;2023-03-04T15:25:56;17.55;;;9.00;;
38859;SDS011;24609;48.316;16.174;2023-03-04T15:28:24;16.52;;;7.38;;
38859;SDS011;24609;48.316;16.174;2023-03-04T15:30:51;17.08;;;8.65;;
38859;SDS011;24609;48.316;16.174;2023-03-04T15:33:17;16.52;;;9.07;;
38859;SDS011;24609;48.316;16.174;2023-03-04T15:35:47;18.95;;;8.30;;
38859;SDS011;24609;48.316;16.174;2023-03-04T15:38:16;14.23;;;7.50;;
38859;SDS011;24609;48.316;16.174;2023-03-04T15:40:42;21.33;;;9.57;;
38859;SDS011;24609;48.316;16.174;2023-03-04T15:43:15;16.90;;;7.45;;
38859;SDS011;24609;48.316;16.174;2023-03-04T15:45:43;14.63;;;7.80;;
38859;SDS011;24609;48.316;16.174;2023-03-04T15:48:12;19.05;;;8.98;;
38859;SDS011;24609;48.316;16.174;2023-03-04T15:50:41;18.92;;;8.02;;
38859;SDS011;24609;48.316;16.174;2023-03-04T15:53:31;16.05;;;8.15;;
38859;SDS011;24609;48.316;16.174;2023-03-04T15:56:04;17.05;;;8.35;;
38859;SDS011;24609;48.316;16.174;2023-03-04T15:58:33;20.88;;;8.60;;
38859;SDS011;24609;48.316;16.174;2023-03-04T16:00:59;19.67;;;8.60;;
38859;SDS011;24609;48.316;16.174;2023-03-04T16:03:25;19.63;;;8.63;;
38859;SDS011;24609;48.316;16.174;2023-03-04T16:05:50;14.70;;;6.57;;
38859;SDS011;24609;48.316;16.174;2023-03-04T16:08:20;11.23;;;6.65;;
38859;SDS011;24609;48.316;16.174;2023-03-04T16:10:49;18.20;;;6.72;;
38859;SDS011;24609;48.316;16.174;2023-03-04T16:13:17;17.98;;;8.73;;
38859;SDS011;24609;48.316;16.174;2023-03-04T16:15:44;13.40;;;6.97;;
38859;SDS011;24609;48.316;16.174;2023-03-04T16:18:11;14.55;;;7.85;;
38859;SDS011;24609;48.316;16.174;2023-03-04T16:20:37;14.60;;;7.15;;
38859;SDS011;24609;48.316;16.174;2023-03-04T16:23:04;14.48;;;7.95;;
38859;SDS011;24609;48.316;16.174;2023-03-04T16:25:34;10.85;;;7.18;;
38859;SDS011;24609;48.316;16.174;2023-03-04T16:28:00;13.57;;;7.57;;
38859;SDS011;24609;48.316;16.174;2023-03-04T16:30:29;13.32;;;7.05;;
38859;SDS011;24609;48.316;16.174;2023-03-04T16:32:55;12.38;;;7.40;;
38859;SDS011;24609;48.316;16.174;2023-03-04T16:35:21;16.33;;;6.97;;